Time;durP1;ratioP1;P1;durP2;ratioP2;P2;SDS_P1;SDS_P2;PMS_P1;PMS_P2;Temp;Humidity;BMP_temperature;BMP_pressure;BME280_temperature;BME280_humidity;BME280_pressure;Samples;Min_cycle;Max_cycle;Signal;HPM_P1;HPM_P2
2021/08/13 00:00:30;;;;;;;0.28;0.28;;;;;;;18.64;51.96;101840.91;5074924;28;20029;-64
2021/08/13 00:02:55;;;;;;;0.17;0.17;;;;;;;18.24;54.46;101850.16;5074504;28;20024;-64
2021/08/13 00:05:20;;;;;;;0.38;0.30;;;;;;;18.19;56.55;101851.63;5069484;28;20017;-63
2021/08/13 00:07:46;;;;;;;0.38;0.30;;;;;;;18.19;55.43;101847.03;5055045;28;20027;-63
2021/08/13 00:10:11;;;;;;;0.88;0.40;;;;;;;18.17;55.53;101850.91;5054834;28;20032;-63
2021/08/13 00:12:37;;;;;;;0.63;0.40;;;;;;;18.15;54.64;101853.78;5054911;28;20363;-64
2021/08/13 00:15:03;;;;;;;0.30;0.30;;;;;;;18.13;54.76;101853.03;5076194;28;20047;-63
2021/08/13 00:17:29;;;;;;;0.20;0.20;;;;;;;18.15;55.91;101847.47;5074699;28;20013;-63
2021/08/13 00:19:55;;;;;;;0.30;0.30;;;;;;;18.10;57.03;101847.91;5074493;28;20435;-63
2021/08/13 00:22:21;;;;;;;0.30;0.20;;;;;;;18.10;56.86;101847.03;5074567;28;20021;-64
2021/08/13 00:24:47;;;;;;;0.30;0.20;;;;;;;18.08;55.62;101855.34;5073535;28;20025;-65
2021/08/13 00:27:13;;;;;;;0.20;0.20;;;;;;;18.06;57.20;101851.06;5073758;28;20369;-64
2021/08/13 00:29:38;;;;;;;0.40;0.30;;;;;;;18.04;54.62;101849.34;5074541;28;20029;-65
2021/08/13 00:32:04;;;;;;;0.28;0.20;;;;;;;18.07;55.16;101850.91;5075054;28;20020;-64
2021/08/13 00:34:29;;;;;;;0.28;0.28;;;;;;;18.06;55.24;101854.63;5061435;28;20033;-64
2021/08/13 00:36:55;;;;;;;1.00;0.38;;;;;;;18.11;56.94;101844.16;5054066;28;20049;-63
2021/08/13 00:39:20;;;;;;;0.50;0.40;;;;;;;18.09;54.72;101839.88;5054381;28;20024;-63
2021/08/13 00:41:45;;;;;;;0.20;0.20;;;;;;;18.04;55.32;101837.59;5054287;28;20025;-63
2021/08/13 00:44:12;;;;;;;0.60;0.30;;;;;;;18.06;55.62;101841.03;5056253;28;20021;-63
2021/08/13 00:46:37;;;;;;;0.17;0.17;;;;;;;18.09;55.76;101840.75;5054827;28;20032;-61
2021/08/13 00:49:03;;;;;;;0.20;0.20;;;;;;;18.06;56.22;101837.44;5053927;28;20373;-63
2021/08/13 00:51:28;;;;;;;0.95;0.40;;;;;;;18.07;55.42;101848.19;5054071;28;20385;-64
2021/08/13 00:53:54;;;;;;;0.20;0.20;;;;;;;18.07;56.58;101848.19;5060981;28;20537;-64
2021/08/13 00:56:20;;;;;;;0.30;0.30;;;;;;;18.08;57.22;101849.91;5073648;28;20086;-64
2021/08/13 00:58:47;;;;;;;0.30;0.30;;;;;;;18.05;56.14;101847.47;5073787;28;20584;-64
2021/08/13 01:01:13;;;;;;;0.20;0.20;;;;;;;18.08;54.62;101849.91;5073863;28;20017;-64
2021/08/13 01:03:39;;;;;;;0.38;0.30;;;;;;;18.01;56.94;101855.09;5070112;28;20497;-64
2021/08/13 01:06:11;;;;;;;0.30;0.25;;;;;;;18.07;55.05;101853.63;5053672;28;20029;-64
2021/08/13 01:08:37;;;;;;;0.20;0.20;;;;;;;18.08;55.84;101847.19;5054004;28;20028;-64
2021/08/13 01:11:22;;;;;;;0.25;0.20;;;;;;;18.05;56.67;101850.19;5053684;28;20611;-64
2021/08/13 01:13:56;;;;;;;0.20;0.20;;;;;;;18.10;55.58;101842.44;5060427;28;20039;-63
2021/08/13 01:16:22;;;;;;;0.30;0.30;;;;;;;18.11;55.21;101844.16;5074343;28;20024;-64
2021/08/13 01:19:20;;;;;;;0.32;0.32;;;;;;;18.13;56.18;101850.31;5073547;28;20381;-64
2021/08/13 01:21:56;;;;;;;0.22;0.22;;;;;;;18.12;56.42;101848.59;5009289;28;20430;-64
2021/08/13 01:24:25;;;;;;;0.32;0.30;;;;;;;18.14;55.27;101849.34;5011754;28;20120;-64
2021/08/13 01:27:00;;;;;;;0.40;0.40;;;;;;;18.14;54.71;101848.47;5008805;28;20030;-64
2021/08/13 01:29:38;;;;;;;0.45;0.30;;;;;;;18.13;54.94;101842.16;4992601;28;20030;-64
2021/08/13 01:32:12;;;;;;;0.30;0.25;;;;;;;18.10;56.31;101847.91;4991708;28;20137;-64
2021/08/13 01:34:52;;;;;;;0.35;0.20;;;;;;;18.09;54.42;101843.47;4992083;28;20439;-64
2021/08/13 01:37:20;;;;;;;0.25;0.25;;;;;;;18.12;55.59;101839.59;4992729;28;20023;-65
2021/08/13 01:39:51;;;;;;;0.40;0.22;;;;;;;18.16;55.25;101841.03;5011382;28;20092;-65
2021/08/13 01:42:17;;;;;;;0.30;0.20;;;;;;;18.11;55.50;101841.44;5012315;28;20033;-64
2021/08/13 01:44:43;;;;;;;0.20;0.20;;;;;;;18.15;54.47;101840.19;5011096;28;20049;-64
2021/08/13 01:47:09;;;;;;;0.20;0.20;;;;;;;18.15;54.38;101845.63;5011485;28;20477;-63
2021/08/13 01:49:35;;;;;;;0.22;0.22;;;;;;;18.18;55.37;101844.47;5010683;28;20025;-63
2021/08/13 01:52:02;;;;;;;0.45;0.35;;;;;;;18.16;55.64;101841.88;5011052;28;20038;-64
2021/08/13 01:54:29;;;;;;;0.30;0.30;;;;;;;18.13;55.66;101842.16;5013812;28;20418;-64
2021/08/13 01:56:55;;;;;;;0.30;0.30;;;;;;;18.15;55.46;101845.63;5011298;28;20116;-64
2021/08/13 01:59:21;;;;;;;0.28;0.28;;;;;;;18.12;56.32;101836.84;5070084;28;20063;-65
2021/08/13 02:01:48;;;;;;;0.28;0.28;;;;;;;18.16;54.95;101838.31;5073147;28;20115;-65
2021/08/13 02:04:19;;;;;;;0.30;0.20;;;;;;;18.13;55.47;101839.44;5073234;28;20071;-65
2021/08/13 02:06:45;;;;;;;0.20;0.20;;;;;;;18.13;57.09;101842.16;5075654;28;20024;-65
2021/08/13 02:09:12;;;;;;;0.20;0.20;;;;;;;18.13;55.94;101841.28;5072570;28;20095;-65
2021/08/13 02:11:37;;;;;;;0.20;0.20;;;;;;;18.12;56.63;101840.44;5073369;28;20111;-64
2021/08/13 02:14:03;;;;;;;0.20;0.20;;;;;;;18.14;55.18;101843.00;5072649;28;20465;-64
2021/08/13 02:16:31;;;;;;;0.20;0.20;;;;;;;18.15;56.81;101833.88;5055508;28;20028;-64
2021/08/13 02:19:43;;;;;;;0.30;0.30;;;;;;;18.12;54.96;101840.44;5055243;28;20070;-63
2021/08/13 02:22:09;;;;;;;0.20;0.20;;;;;;;18.08;58.46;101835.44;5009099;28;20104;-66
2021/08/13 02:24:34;;;;;;;0.30;0.30;;;;;;;18.10;56.40;101834.28;5009602;28;20128;-65
2021/08/13 02:27:01;;;;;;;0.32;0.30;;;;;;;18.09;55.31;101835.28;4990912;28;20117;-65
2021/08/13 02:29:27;;;;;;;0.20;0.20;;;;;;;18.12;55.40;101825.97;5011181;28;20041;-64
2021/08/13 02:31:53;;;;;;;0.30;0.30;;;;;;;18.10;55.83;101826.13;5011972;28;20042;-61
2021/08/13 02:34:19;;;;;;;0.17;0.17;;;;;;;18.14;56.59;101835.75;5006541;28;20038;-64
2021/08/13 02:37:10;;;;;;;0.30;0.20;;;;;;;18.13;55.80;101834.00;4996369;28;20040;-64
2021/08/13 02:39:56;;;;;;;0.40;0.20;;;;;;;18.10;56.73;101831.56;5010082;28;20034;-64
2021/08/13 02:42:37;;;;;;;0.60;0.47;;;;;;;18.09;56.02;101835.28;5010813;28;20486;-64
2021/08/13 02:45:03;;;;;;;0.40;0.40;;;;;;;18.12;55.51;101828.69;5010103;28;20046;-64
2021/08/13 02:47:29;;;;;;;0.22;0.22;;;;;;;18.10;56.29;101823.41;4994428;28;20034;-64
2021/08/13 02:50:04;;;;;;;0.20;0.20;;;;;;;18.10;56.23;101820.69;5013337;28;20048;-64
2021/08/13 02:52:37;;;;;;;0.40;0.20;;;;;;;18.07;57.17;101777.44;5014695;28;20042;-65
2021/08/13 02:55:05;;;;;;;0.20;0.20;;;;;;;18.11;56.95;101784.28;4993089;28;20113;-65
2021/08/13 02:57:33;;;;;;;0.45;0.20;;;;;;;18.08;56.28;101762.81;5019634;28;20045;-64
2021/08/13 03:00:02;;;;;;;0.20;0.20;;;;;;;18.07;55.12;101859.06;5056242;28;20103;-65
2021/08/13 03:02:29;;;;;;;0.20;0.20;;;;;;;18.07;57.40;101831.00;5056012;28;20486;-64
2021/08/13 03:04:56;;;;;;;0.22;0.20;;;;;;;18.06;57.31;101824.72;5055816;28;20297;-65
2021/08/13 03:07:24;;;;;;;0.20;0.20;;;;;;;18.05;56.92;101828.44;5056169;28;20033;-64
2021/08/13 03:09:51;;;;;;;0.10;0.10;;;;;;;18.04;56.83;101822.13;5056056;28;20064;-64
2021/08/13 03:12:17;;;;;;;0.10;0.10;;;;;;;18.03;56.77;101817.69;5057052;28;20500;-65
2021/08/13 03:14:44;;;;;;;0.17;0.17;;;;;;;18.05;54.96;101803.94;5058104;28;20047;-65
2021/08/13 03:17:09;;;;;;;0.10;0.10;;;;;;;18.04;56.39;101797.66;5077553;28;20088;-64
2021/08/13 03:19:35;;;;;;;0.15;0.10;;;;;;;18.02;56.03;101799.66;5075976;28;20124;-64
2021/08/13 03:22:00;;;;;;;0.10;0.10;;;;;;;18.02;56.72;101794.22;5074676;28;20048;-64
2021/08/13 03:24:26;;;;;;;0.28;0.22;;;;;;;17.99;56.61;101790.94;5073477;28;20066;-64
2021/08/13 03:26:52;;;;;;;0.13;0.13;;;;;;;17.99;56.68;101801.81;5076291;28;20106;-64
2021/08/13 03:29:17;;;;;;;0.10;0.10;;;;;;;17.99;58.27;101785.50;5074450;28;20107;-64
2021/08/13 03:31:45;;;;;;;0.10;0.10;;;;;;;17.97;57.20;101787.47;5075695;28;20499;-64
2021/08/13 03:34:12;;;;;;;0.00;0.00;;;;;;;17.97;56.43;101785.63;5075456;28;20028;-64
2021/08/13 03:36:38;;;;;;;0.10;0.10;;;;;;;17.97;56.54;101782.03;5074911;28;20063;-65
2021/08/13 03:39:05;;;;;;;0.20;0.20;;;;;;;17.97;57.12;101779.31;5075382;28;20024;-65
2021/08/13 03:41:31;;;;;;;0.00;0.00;;;;;;;17.96;54.73;101764.00;5077047;28;20028;-65
2021/08/13 03:43:56;;;;;;;0.08;0.08;;;;;;;17.97;59.61;101772.03;5076779;28;20112;-64
2021/08/13 03:46:22;;;;;;;0.10;0.10;;;;;;;17.94;61.28;101776.88;5074661;28;20036;-64
2021/08/13 03:48:47;;;;;;;0.10;0.10;;;;;;;17.97;60.44;101765.72;5075295;28;20488;-65
2021/08/13 03:51:13;;;;;;;0.10;0.10;;;;;;;17.92;56.52;101773.47;5075403;28;20048;-65
2021/08/13 03:53:38;;;;;;;0.10;0.10;;;;;;;17.95;58.66;101771.28;5071109;28;20020;-64
2021/08/13 03:56:04;;;;;;;0.03;0.03;;;;;;;17.91;58.62;101771.75;5054952;28;20034;-64
2021/08/13 03:58:29;;;;;;;0.00;0.00;;;;;;;17.93;57.51;101769.72;5055153;28;20029;-64
2021/08/13 04:00:55;;;;;;;0.10;0.10;;;;;;;17.91;62.23;101767.16;5055015;28;20056;-63
2021/08/13 04:03:20;;;;;;;0.10;0.10;;;;;;;19.13;55.36;101757.03;5056638;28;20040;-64
2021/08/13 04:05:45;;;;;;;0.00;0.00;;;;;;;19.57;54.50;101760.72;5075026;28;20035;-65
2021/08/13 04:08:10;;;;;;;0.00;0.00;;;;;;;19.86;53.08;101746.81;5075928;28;20017;-64
2021/08/13 04:10:36;;;;;;;0.10;0.05;;;;;;;20.02;51.08;101748.81;5076025;28;20043;-65
2021/08/13 04:13:01;;;;;;;0.00;0.00;;;;;;;20.14;56.11;101740.16;5074122;28;20024;-64
2021/08/13 04:15:29;;;;;;;0.10;0.10;;;;;;;20.39;54.30;101748.50;5073525;28;20032;-64
2021/08/13 04:17:55;;;;;;;0.00;0.00;;;;;;;20.52;53.45;101743.47;5072543;28;20047;-64
2021/08/13 04:20:20;;;;;;;0.00;0.00;;;;;;;20.60;53.11;101746.22;5074568;28;20024;-64
2021/08/13 04:22:46;;;;;;;0.10;0.10;;;;;;;20.67;52.58;101746.44;5063890;28;20029;-64
2021/08/13 04:25:11;;;;;;;0.00;0.00;;;;;;;20.73;54.22;101735.69;5054423;28;20103;-64
2021/08/13 04:27:36;;;;;;;0.10;0.10;;;;;;;20.85;58.60;101744.47;5054599;28;20036;-65
2021/08/13 04:30:03;;;;;;;0.00;0.00;;;;;;;20.87;54.91;101747.88;5054224;28;20121;-64
2021/08/13 04:32:28;;;;;;;0.00;0.00;;;;;;;20.97;57.18;101740.38;5059450;28;20060;-65
2021/08/13 04:34:54;;;;;;;0.00;0.00;;;;;;;21.01;54.65;101749.13;5075590;28;20047;-64
2021/08/13 04:37:19;;;;;;;0.10;0.10;;;;;;;21.09;59.17;101740.91;5078253;28;20128;-65
2021/08/13 04:39:44;;;;;;;0.00;0.00;;;;;;;21.18;56.84;101739.94;5074108;28;20044;-64
2021/08/13 04:42:10;;;;;;;0.10;0.10;;;;;;;21.26;56.78;101739.94;5071498;28;20047;-65
2021/08/13 04:44:35;;;;;;;0.00;0.00;;;;;;;21.31;56.78;101732.09;5054399;28;20060;-65
2021/08/13 04:47:00;;;;;;;0.00;0.00;;;;;;;21.35;58.06;101748.19;5054163;28;20042;-65
2021/08/13 04:49:26;;;;;;;0.00;0.00;;;;;;;21.39;57.26;101744.06;5053897;28;20098;-66
2021/08/13 04:51:52;;;;;;;0.20;0.10;;;;;;;21.47;60.71;101755.00;5054246;28;20501;-65
2021/08/13 04:54:17;;;;;;;0.00;0.00;;;;;;;21.51;59.91;101750.94;5054569;28;20424;-65
2021/08/13 04:56:43;;;;;;;0.08;0.08;;;;;;;21.53;58.57;101754.34;5053860;28;20044;-65
2021/08/13 04:59:10;;;;;;;0.00;0.00;;;;;;;21.53;59.99;101746.16;5054185;28;20033;-65
2021/08/13 05:01:35;;;;;;;0.00;0.00;;;;;;;21.59;58.17;101748.19;5058703;28;20412;-66
2021/08/13 05:04:00;;;;;;;0.00;0.00;;;;;;;21.66;59.63;101756.53;5071413;28;20108;-65
2021/08/13 05:06:26;;;;;;;0.08;0.00;;;;;;;21.61;61.53;101752.44;5072678;28;20051;-67
2021/08/13 05:08:51;;;;;;;0.10;0.00;;;;;;;21.67;60.48;101750.06;5077261;28;20116;-65
2021/08/13 05:11:16;;;;;;;0.00;0.00;;;;;;;21.72;60.59;101745.78;5073318;28;20025;-67
2021/08/13 05:13:42;;;;;;;0.00;0.00;;;;;;;21.72;60.60;101737.56;5058519;28;20060;-66
2021/08/13 05:16:08;;;;;;;0.45;0.00;;;;;;;21.71;60.70;101746.81;5053768;28;20013;-66
2021/08/13 05:18:34;;;;;;;0.00;0.00;;;;;;;21.68;49.72;101741.69;5053610;28;20025;-65
2021/08/13 05:21:00;;;;;;;0.00;0.00;;;;;;;21.69;56.17;101745.28;5053440;28;20025;-65
2021/08/13 05:23:25;;;;;;;0.00;0.00;;;;;;;21.72;49.86;101748.53;5065600;28;20066;-65
2021/08/13 05:25:51;;;;;;;0.00;0.00;;;;;;;21.66;53.42;101749.19;5073181;28;20545;-66
2021/08/13 05:28:16;;;;;;;0.00;0.00;;;;;;;21.58;54.73;101751.94;5073894;28;20504;-66
2021/08/13 05:30:41;;;;;;;0.08;0.08;;;;;;;21.47;55.61;101752.28;5074987;28;20048;-65
2021/08/13 05:33:08;;;;;;;0.10;0.10;;;;;;;21.37;51.72;101748.88;5073137;28;20478;-66
2021/08/13 05:35:37;;;;;;;0.00;0.00;;;;;;;21.35;55.77;101750.91;5073651;28;20029;-66
2021/08/13 05:38:04;;;;;;;0.10;0.10;;;;;;;21.33;50.79;101753.78;5075282;28;20016;-66
2021/08/13 05:40:29;;;;;;;0.00;0.00;;;;;;;21.30;52.38;101755.00;5073192;28;20028;-67
2021/08/13 05:42:56;;;;;;;0.00;0.00;;;;;;;21.29;50.61;101747.81;5057903;28;20055;-67
2021/08/13 05:45:22;;;;;;;0.00;0.00;;;;;;;21.35;50.60;101754.50;5053604;28;20029;-66
2021/08/13 05:47:48;;;;;;;0.00;0.00;;;;;;;21.31;51.90;101756.69;5053240;28;20079;-67
2021/08/13 05:50:16;;;;;;;0.03;0.03;;;;;;;21.28;50.45;101756.19;5053475;28;20362;-68
2021/08/13 05:52:42;;;;;;;0.00;0.00;;;;;;;21.31;56.00;101762.16;5065729;28;20029;-66
2021/08/13 05:55:08;;;;;;;1.00;0.00;;;;;;;21.29;51.88;101753.28;5074542;28;20020;-67
2021/08/13 05:57:34;;;;;;;0.10;0.10;;;;;;;21.26;51.74;101758.25;5076378;28;20027;-65
2021/08/13 05:59:59;;;;;;;0.13;0.10;;;;;;;21.30;50.42;101755.00;5075231;28;20032;-66
2021/08/13 06:02:24;;;;;;;0.00;0.00;;;;;;;21.28;54.85;101751.56;5062645;28;20072;-67
2021/08/13 06:04:51;;;;;;;0.00;0.00;;;;;;;21.26;48.04;101753.63;5052326;28;20043;-67
2021/08/13 06:07:16;;;;;;;0.00;0.00;;;;;;;21.27;54.36;101749.88;5056713;28;20017;-67
2021/08/13 06:09:41;;;;;;;0.03;0.03;;;;;;;21.29;58.98;101742.34;5053139;28;20075;-66
2021/08/13 06:12:07;;;;;;;0.08;0.08;;;;;;;21.28;50.36;101743.38;5060686;28;20407;-66
2021/08/13 06:14:32;;;;;;;0.00;0.00;;;;;;;21.33;53.99;101748.31;5073177;28;20033;-67
2021/08/13 06:17:00;;;;;;;0.00;0.00;;;;;;;21.30;49.26;101749.53;5072999;28;20032;-67
2021/08/13 06:19:25;;;;;;;0.00;0.00;;;;;;;21.31;48.15;101745.75;5072788;28;20479;-68
2021/08/13 06:21:51;;;;;;;0.00;0.00;;;;;;;21.31;49.44;101751.22;5068278;28;20029;-66
2021/08/13 06:24:16;;;;;;;0.05;0.05;;;;;;;21.38;56.44;101745.09;5067153;28;20025;-67
2021/08/13 06:26:41;;;;;;;0.00;0.00;;;;;;;21.35;52.94;101746.31;5080791;28;20052;-66
2021/08/13 06:29:07;;;;;;;0.00;0.00;;;;;;;21.30;51.98;101755.00;5067878;28;20107;-67
2021/08/13 06:31:32;;;;;;;0.00;0.00;;;;;;;21.32;52.67;101752.94;5076614;28;20028;-67
2021/08/13 06:33:58;;;;;;;0.00;0.00;;;;;;;21.34;50.89;101750.06;5070195;28;20580;-66
2021/08/13 06:36:23;;;;;;;0.10;0.03;;;;;;;21.38;47.59;101758.78;5066129;28;20016;-65
2021/08/13 06:38:49;;;;;;;0.00;0.00;;;;;;;21.35;48.57;101757.25;5076376;28;20029;-66
2021/08/13 06:41:14;;;;;;;0.00;0.00;;;;;;;21.34;48.92;101760.16;5076577;28;20012;-66
2021/08/13 06:43:39;;;;;;;0.00;0.00;;;;;;;21.31;52.85;101762.16;5074995;28;20107;-67
2021/08/13 06:46:05;;;;;;;0.00;0.00;;;;;;;21.34;50.77;101765.63;5076419;28;20343;-64
2021/08/13 06:48:30;;;;;;;0.00;0.00;;;;;;;21.32;51.47;101763.88;5076621;28;20028;-66
2021/08/13 06:50:56;;;;;;;0.00;0.00;;;;;;;21.32;49.03;101769.34;5078066;28;20391;-65
2021/08/13 06:53:22;;;;;;;0.10;0.10;;;;;;;21.34;50.45;101763.75;5077286;28;20033;-66
2021/08/13 06:55:47;;;;;;;0.10;0.10;;;;;;;21.32;53.43;101768.50;5066377;28;20091;-66
2021/08/13 06:58:12;;;;;;;0.10;0.10;;;;;;;21.37;51.51;101765.28;5071156;28;20090;-67
2021/08/13 07:00:38;;;;;;;0.00;0.00;;;;;;;21.37;52.69;101757.94;5076366;28;20107;-67
2021/08/13 07:03:04;;;;;;;0.00;0.00;;;;;;;21.35;55.34;101756.38;5076062;28;20031;-68
2021/08/13 07:05:29;;;;;;;0.00;0.00;;;;;;;21.35;48.90;101751.78;5076380;28;20066;-67
2021/08/13 07:07:56;;;;;;;0.00;0.00;;;;;;;21.39;50.83;101752.28;5076379;28;20060;-68
2021/08/13 07:10:21;;;;;;;0.10;0.00;;;;;;;21.39;49.05;101749.56;5078850;28;20461;-67
2021/08/13 07:12:46;;;;;;;0.10;0.10;;;;;;;21.36;51.24;101749.88;5076184;28;20028;-68
2021/08/13 07:15:12;;;;;;;0.28;0.10;;;;;;;21.36;48.71;101736.22;5075755;28;20477;-68
2021/08/13 07:17:38;;;;;;;0.00;0.00;;;;;;;21.38;53.17;101728.69;5076366;28;20025;-68
2021/08/13 07:20:05;;;;;;;0.00;0.00;;;;;;;21.39;54.65;101730.41;5074602;28;20036;-68
2021/08/13 07:22:32;;;;;;;0.00;0.00;;;;;;;21.37;51.82;101733.31;5076279;28;20028;-67
2021/08/13 07:24:58;;;;;;;0.00;0.00;;;;;;;21.39;54.31;101725.78;5075252;28;20026;-68
2021/08/13 07:27:27;;;;;;;0.00;0.00;;;;;;;21.44;48.21;101730.72;5068838;28;20066;-68
2021/08/13 07:29:54;;;;;;;0.08;0.08;;;;;;;21.41;50.88;101728.34;5071349;28;20389;-68
2021/08/13 07:32:19;;;;;;;0.28;0.00;;;;;;;21.42;48.61;101738.25;5074435;28;20457;-68
2021/08/13 07:34:44;;;;;;;0.03;0.03;;;;;;;21.44;50.87;101741.69;5074543;28;20049;-69
2021/08/13 07:37:10;;;;;;;0.00;0.00;;;;;;;21.43;50.55;101731.75;5074164;28;20012;-69
2021/08/13 07:39:36;;;;;;;0.00;0.00;;;;;;;21.41;52.52;101731.09;5079670;28;20020;-69
2021/08/13 07:42:01;;;;;;;0.00;0.00;;;;;;;21.46;53.96;101745.09;5075090;28;20376;-68
2021/08/13 07:44:27;;;;;;;0.00;0.00;;;;;;;21.43;53.98;101731.75;5074986;28;20671;-68
2021/08/13 07:46:53;;;;;;;0.00;0.00;;;;;;;21.45;52.15;101724.22;5074434;28;20021;-69
2021/08/13 07:49:20;;;;;;;0.00;0.00;;;;;;;21.47;48.56;101735.84;5074948;28;20057;-69
2021/08/13 07:52:01;;;;;;;0.00;0.00;;;;;;;21.46;49.58;101729.53;5067327;28;20238;-69
2021/08/13 07:54:34;;;;;;;0.00;0.00;;;;;;;21.47;50.89;101719.44;5077745;28;20621;-69
2021/08/13 07:56:59;;;;;;;0.00;0.00;;;;;;;21.51;54.62;101720.84;5075225;28;20040;-68
2021/08/13 07:59:24;;;;;;;0.08;0.08;;;;;;;21.50;49.00;101721.84;5074977;28;20382;-69
2021/08/13 08:01:51;;;;;;;0.00;0.00;;;;;;;21.52;48.50;101726.13;5075454;28;20103;-69
2021/08/13 08:04:18;;;;;;;0.10;0.10;;;;;;;21.48;48.17;101729.34;5069469;28;20041;-68
2021/08/13 08:06:44;;;;;;;0.00;0.00;;;;;;;21.48;49.02;101730.22;5070925;28;20064;-68
2021/08/13 08:09:10;;;;;;;0.03;0.03;;;;;;;21.47;48.68;101727.66;5078656;28;20047;-69
2021/08/13 08:11:35;;;;;;;0.03;0.03;;;;;;;21.46;50.19;101731.41;5074818;28;20020;-69
2021/08/13 08:14:02;;;;;;;0.00;0.00;;;;;;;21.47;51.50;101733.13;5074305;28;20028;-69
2021/08/13 08:16:28;;;;;;;0.05;0.05;;;;;;;21.50;48.19;101713.63;5075128;28;20013;-69
2021/08/13 08:18:55;;;;;;;0.00;0.00;;;;;;;21.50;49.50;101724.56;5074732;28;20358;-68
2021/08/13 08:21:20;;;;;;;0.10;0.10;;;;;;;21.49;52.35;101714.66;5074128;28;20029;-70
2021/08/13 08:23:45;;;;;;;0.10;0.10;;;;;;;21.52;49.32;101720.66;5077030;28;20047;-69
2021/08/13 08:26:13;;;;;;;0.00;0.00;;;;;;;21.52;49.13;101719.81;5074953;28;20445;-69
2021/08/13 08:28:44;;;;;;;0.10;0.10;;;;;;;21.49;52.14;101714.66;5074701;28;20384;-69
2021/08/13 08:31:10;;;;;;;0.00;0.00;;;;;;;21.55;45.99;101727.66;5074948;28;20139;-69
2021/08/13 08:33:37;;;;;;;0.00;0.00;;;;;;;21.53;49.60;101729.72;5074601;28;20111;-69
2021/08/13 08:36:02;;;;;;;0.00;0.00;;;;;;;21.51;50.15;101731.78;5070326;28;20056;-69
2021/08/13 08:38:28;;;;;;;0.00;0.00;;;;;;;21.54;51.73;101734.16;5074870;28;20150;-69
2021/08/13 08:40:56;;;;;;;0.10;0.10;;;;;;;21.54;50.09;101735.03;5074176;28;20427;-69
2021/08/13 08:43:21;;;;;;;0.40;0.10;;;;;;;21.57;50.68;101729.19;5074059;28;20053;-68
2021/08/13 08:45:48;;;;;;;0.10;0.10;;;;;;;21.60;54.49;101722.53;5073656;28;20388;-69
2021/08/13 08:48:13;;;;;;;0.00;0.00;;;;;;;21.57;48.89;101731.94;5073535;28;20028;-68
2021/08/13 08:50:42;;;;;;;0.03;0.03;;;;;;;21.59;52.59;101715.34;5077067;28;20020;-68
2021/08/13 08:53:14;;;;;;;0.10;0.10;;;;;;;21.59;50.76;101715.34;5074232;28;20035;-68
2021/08/13 08:55:40;;;;;;;0.05;0.05;;;;;;;21.61;48.78;101719.63;5056864;28;20170;-68
2021/08/13 08:58:07;;;;;;;0.08;0.08;;;;;;;21.76;54.17;101713.44;5072979;28;20052;-64
2021/08/13 09:00:32;;;;;;;1.10;0.10;;;;;;;21.96;51.41;101706.56;5073967;28;20032;-64
2021/08/13 09:02:58;;;;;;;0.10;0.10;;;;;;;22.10;53.96;101718.72;5058367;28;20043;-66
2021/08/13 09:05:23;;;;;;;0.20;0.10;;;;;;;22.15;54.75;101710.81;5071069;28;20017;-69
2021/08/13 09:07:58;;;;;;;0.10;0.10;;;;;;;22.28;52.59;101711.13;5066867;28;20477;-60
2021/08/13 09:10:24;;;;;;;0.77;0.40;;;;;;;22.33;51.89;101708.72;5075191;28;20024;-60
2021/08/13 09:12:52;;;;;;;1.27;0.30;;;;;;;22.35;54.34;101711.31;5072327;28;20078;-60
2021/08/13 09:15:28;;;;;;;0.75;0.17;;;;;;;22.42;53.05;101713.13;5072956;28;20035;-60
2021/08/13 09:18:16;;;;;;;1.25;0.20;;;;;;;22.35;54.05;101712.16;5064141;28;20095;-61
2021/08/13 09:20:44;;;;;;;0.38;0.30;;;;;;;22.37;54.34;101710.09;5052603;28;20025;-60
2021/08/13 09:23:10;;;;;;;1.95;0.22;;;;;;;22.44;53.20;101716.56;5053484;28;20028;-62
2021/08/13 09:25:36;;;;;;;1.98;0.15;;;;;;;22.49;53.91;101705.91;5073332;28;20504;-60
2021/08/13 09:28:03;;;;;;;2.45;0.43;;;;;;;22.44;55.70;101711.06;5073058;28;20033;-60
2021/08/13 09:30:28;;;;;;;1.00;0.30;;;;;;;22.42;56.42;101713.13;5068327;28;20070;-60
2021/08/13 09:33:05;;;;;;;1.75;0.55;;;;;;;22.22;57.57;101703.63;5069279;28;20032;-60
2021/08/13 09:35:39;;;;;;;1.40;0.32;;;;;;;22.09;58.22;101695.09;5067842;28;20021;-60
2021/08/13 09:38:10;;;;;;;;;;;;;;;22.09;57.27;101700.59;5060927;28;20043;-60
2021/08/13 09:40:37;;;;;;;0.50;0.30;;;;;;;22.04;56.39;101700.22;5063032;28;19913;-61
2021/08/13 09:43:03;;;;;;;0.80;0.40;;;;;;;21.92;56.73;101688.78;5062893;28;20028;-60
2021/08/13 09:45:28;;;;;;;1.58;0.40;;;;;;;21.81;55.44;101698.22;5059428;28;20040;-60
2021/08/13 09:47:54;;;;;;;2.80;0.50;;;;;;;21.74;54.84;101694.47;5073194;28;20025;-60
2021/08/13 09:50:36;;;;;;;0.82;0.30;;;;;;;21.72;57.00;101693.78;5073217;28;20481;-60
2021/08/13 09:53:09;;;;;;;0.75;0.40;;;;;;;21.68;57.34;101689.69;5072057;28;20031;-60
2021/08/13 09:55:35;;;;;;;1.30;0.60;;;;;;;21.66;56.67;101683.50;5059619;28;20040;-60
2021/08/13 09:58:01;;;;;;;4.40;0.50;;;;;;;21.66;57.72;101682.66;5072420;28;20044;-61
2021/08/13 10:00:27;;;;;;;1.83;0.60;;;;;;;21.63;55.81;101684.72;5071807;28;20485;-61
2021/08/13 10:03:04;;;;;;;1.77;0.60;;;;;;;21.62;54.90;101684.91;5072926;28;20074;-61
2021/08/13 10:05:30;;;;;;;1.45;0.22;;;;;;;21.67;57.09;101677.03;5074346;28;20076;-61
2021/08/13 10:08:00;;;;;;;1.80;0.40;;;;;;;21.64;55.88;101677.38;5073677;28;20050;-61
2021/08/13 10:10:31;;;;;;;2.42;0.45;;;;;;;21.61;54.50;101670.34;5073201;28;20070;-61
2021/08/13 10:12:58;;;;;;;1.67;0.43;;;;;;;21.61;56.43;101675.84;5072837;28;20376;-60
2021/08/13 10:15:27;;;;;;;1.70;0.30;;;;;;;21.62;54.52;101663.00;5052604;28;20020;-61
2021/08/13 10:17:56;;;;;;;2.83;0.40;;;;;;;21.63;55.26;101659.25;5053970;28;20043;-61
2021/08/13 10:20:26;;;;;;;0.63;0.30;;;;;;;21.60;54.67;101662.31;5052868;28;20025;-61
2021/08/13 10:22:52;;;;;;;1.67;0.43;;;;;;;21.65;55.05;101659.91;5052590;28;20029;-61
2021/08/13 10:25:19;;;;;;;2.97;0.70;;;;;;;21.60;54.51;101657.72;5069418;28;20031;-61
2021/08/13 10:27:46;;;;;;;2.50;0.40;;;;;;;21.67;54.85;101655.16;5072712;28;20481;-61
2021/08/13 10:30:12;;;;;;;1.42;0.20;;;;;;;21.64;54.60;101666.41;5073139;28;20026;-60
2021/08/13 10:32:38;;;;;;;1.08;0.30;;;;;;;21.64;54.06;101658.22;5068786;28;20077;-61
2021/08/13 10:35:04;;;;;;;1.17;0.38;;;;;;;21.61;56.09;101647.63;5065637;28;20029;-60
2021/08/13 10:37:31;;;;;;;2.15;0.40;;;;;;;21.67;55.58;101640.59;5072478;28;20021;-61
2021/08/13 10:39:56;;;;;;;1.77;0.70;;;;;;;21.62;58.50;101643.84;5072672;28;20029;-60
2021/08/13 10:42:26;;;;;;;2.53;0.40;;;;;;;21.65;57.22;101643.50;5070620;28;20578;-61
2021/08/13 10:45:02;;;;;;;2.85;1.05;;;;;;;21.65;54.51;101638.03;5052653;28;20060;-60
2021/08/13 10:47:35;;;;;;;2.38;0.50;;;;;;;21.66;56.55;101631.53;5055937;28;20032;-60
2021/08/13 10:50:03;;;;;;;1.98;0.43;;;;;;;21.66;56.26;101631.53;5072414;28;20028;-61
2021/08/13 10:52:39;;;;;;;0.60;0.30;;;;;;;21.66;54.60;101628.78;5072404;28;20024;-60
2021/08/13 10:55:06;;;;;;;3.08;0.60;;;;;;;21.65;54.52;101627.06;5072510;28;20027;-61
2021/08/13 10:57:50;;;;;;;2.15;0.40;;;;;;;21.67;54.68;101619.56;5072538;28;20036;-61
2021/08/13 11:00:16;;;;;;;1.75;0.50;;;;;;;21.61;57.60;101626.56;5072863;28;20496;-61
2021/08/13 11:03:26;;;;;;;2.00;0.55;;;;;;;21.61;54.95;101626.56;5070570;28;20021;-60
2021/08/13 11:05:55;;;;;;;2.35;0.50;;;;;;;21.66;53.61;101627.94;5072320;28;20032;-61
2021/08/13 11:08:22;;;;;;;1.00;0.25;;;;;;;21.66;55.35;101626.03;5072716;28;20108;-61
2021/08/13 11:10:47;;;;;;;0.45;0.30;;;;;;;21.65;55.02;101626.22;5074178;28;20491;-61
2021/08/13 11:13:17;;;;;;;1.10;0.30;;;;;;;21.66;55.78;101617.84;5074948;28;20044;-61
2021/08/13 11:15:43;;;;;;;1.80;0.20;;;;;;;21.71;55.09;101617.34;5075492;28;20025;-61
2021/08/13 11:18:29;;;;;;;1.65;0.43;;;;;;;21.77;54.92;101614.75;5077192;28;20017;-61
2021/08/13 11:20:55;;;;;;;1.40;0.20;;;;;;;21.91;54.12;101605.81;5076443;28;20028;-59
2021/08/13 11:23:20;;;;;;;0.73;0.30;;;;;;;21.94;53.39;101612.81;5074760;28;20024;-60
2021/08/13 11:25:50;;;;;;;1.67;0.50;;;;;;;21.96;53.57;101607.16;5074466;28;20499;-60